Time;durP1;ratioP1;P1;durP2;ratioP2;P2;SDS_P1;SDS_P2;PMS_P1;PMS_P2;Temp;Humidity;BMP_temperature;BMP_pressure;BME280_temperature;BME280_humidity;BME280_pressure;Samples;Min_cycle;Max_cycle;Signal;HPM_P1;HPM_P2
2022/10/20 00:00:23;;;;;;;28.27;18.42;;;11.50;99.90;;;;;;4961497;28;20341;-84
2022/10/20 00:02:50;;;;;;;24.98;18.33;;;11.50;99.90;;;;;;4946311;28;20027;-85
2022/10/20 00:05:16;;;;;;;32.40;20.35;;;11.50;99.90;;;;;;4946202;28;20118;-84
2022/10/20 00:07:42;;;;;;;29.33;19.67;;;11.60;99.90;;;;;;4978657;28;20082;-83
2022/10/20 00:10:09;;;;;;;27.40;18.58;;;11.60;99.90;;;;;;4961380;28;20027;-83
2022/10/20 00:12:41;;;;;;;25.23;17.17;;;11.70;99.90;;;;;;4961406;28;20037;-84
2022/10/20 00:15:13;;;;;;;32.92;21.73;;;11.70;99.90;;;;;;4960994;28;20039;-84
2022/10/20 00:17:40;;;;;;;30.83;21.75;;;11.70;99.90;;;;;;4978698;28;20051;-84
2022/10/20 00:20:07;;;;;;;33.15;20.88;;;11.70;99.90;;;;;;4960358;28;20400;-84
2022/10/20 00:22:32;;;;;;;38.65;24.02;;;11.80;99.90;;;;;;4978739;28;20031;-83
2022/10/20 00:24:59;;;;;;;38.92;25.15;;;11.80;99.90;;;;;;4978189;28;20379;-84
2022/10/20 00:27:24;;;;;;;35.30;24.60;;;11.80;99.90;;;;;;4946231;28;20423;-83
2022/10/20 00:29:50;;;;;;;37.67;25.10;;;11.80;99.90;;;;;;4977826;28;20088;-81
2022/10/20 00:32:40;;;;;;;41.90;25.80;;;11.80;99.90;;;;;;4989682;28;20625;-85
2022/10/20 00:35:07;;;;;;;40.95;26.08;;;11.80;99.90;;;;;;4961412;28;20038;-83
2022/10/20 00:37:41;;;;;;;42.85;27.60;;;11.90;99.90;;;;;;4971909;28;20023;-84
2022/10/20 00:40:08;;;;;;;47.63;27.90;;;11.90;99.90;;;;;;4959707;28;20122;-83
2022/10/20 00:42:33;;;;;;;45.55;28.63;;;11.90;99.90;;;;;;4984599;28;20034;-83
2022/10/20 00:45:00;;;;;;;44.90;28.10;;;11.90;99.90;;;;;;4969435;28;20488;-83
2022/10/20 00:50:55;;;;;;;43.20;26.80;;;12.00;99.90;;;;;;4953294;28;20085;-83
2022/10/20 00:53:37;;;;;;;36.15;24.95;;;11.90;99.90;;;;;;4992891;28;20026;-83
2022/10/20 00:56:03;;;;;;;;;;;12.00;99.90;;;;;;4971098;28;20058;-83
2022/10/20 00:58:54;;;;;;;43.45;26.50;;;12.00;99.90;;;;;;4963268;28;19910;-83
2022/10/20 01:01:21;;;;;;;38.78;25.00;;;12.00;99.90;;;;;;4981812;28;20051;-84
2022/10/20 01:03:52;;;;;;;40.07;25.57;;;12.00;99.90;;;;;;4982359;28;20054;-82
2022/10/20 01:06:21;;;;;;;38.25;24.63;;;12.00;99.90;;;;;;4985528;28;20015;-84
2022/10/20 01:08:48;;;;;;;37.28;24.88;;;12.00;99.90;;;;;;4987197;28;20019;-84
2022/10/20 01:11:32;;;;;;;37.60;25.30;;;12.00;99.90;;;;;;4987305;28;20023;-83
2022/10/20 01:14:35;;;;;;;38.60;23.80;;;11.90;99.90;;;;;;4965948;28;20023;-84
2022/10/20 01:20:45;;;;;;;30.65;20.27;;;11.90;99.90;;;;;;4964427;28;20042;-84
2022/10/20 01:23:48;;;;;;;37.58;24.08;;;11.90;99.90;;;;;;4984129;28;20038;-84
2022/10/20 01:26:45;;;;;;;34.83;23.85;;;11.90;99.90;;;;;;4962213;28;20488;-83
2022/10/20 01:29:55;;;;;;;31.70;22.52;;;11.90;99.90;;;;;;4966691;28;20027;-81
2022/10/20 01:32:44;;;;;;;33.20;23.45;;;11.90;99.90;;;;;;4968151;28;20030;-84
2022/10/20 01:35:39;;;;;;;34.90;23.50;;;11.90;99.90;;;;;;4955693;28;20038;-84
2022/10/20 01:38:08;;;;;;;36.05;23.23;;;11.80;99.90;;;;;;4979297;28;20031;-84
2022/10/20 01:40:53;;;;;;;27.70;19.92;;;11.90;99.90;;;;;;4981301;28;20077;-82
2022/10/20 01:43:35;;;;;;;28.92;19.13;;;11.80;99.90;;;;;;4980705;28;20480;-83
2022/10/20 01:46:20;;;;;;;31.95;21.30;;;11.90;99.90;;;;;;4981555;28;20026;-84
2022/10/20 01:48:48;;;;;;;33.83;22.17;;;11.90;99.90;;;;;;4961355;28;20046;-83
2022/10/20 01:51:14;;;;;;;34.95;21.75;;;11.90;99.90;;;;;;4945005;28;20069;-84
2022/10/20 01:53:40;;;;;;;28.33;19.52;;;11.90;99.90;;;;;;4961003;28;20027;-84
2022/10/20 01:56:13;;;;;;;33.42;22.85;;;11.90;99.90;;;;;;4978926;28;20037;-84
2022/10/20 01:58:47;;;;;;;39.80;23.27;;;11.80;99.90;;;;;;4979261;28;20547;-85
2022/10/20 02:01:28;;;;;;;38.10;25.23;;;11.80;99.90;;;;;;4983666;28;20035;-83
2022/10/20 02:03:58;;;;;;;35.95;24.63;;;11.70;99.90;;;;;;4977727;28;20436;-83
2022/10/20 02:06:37;;;;;;;30.70;21.30;;;11.70;99.90;;;;;;4977290;28;20576;-83
2022/10/20 02:09:06;;;;;;;40.10;26.40;;;11.70;99.90;;;;;;4983768;28;20066;-83
2022/10/20 02:11:50;;;;;;;37.70;24.50;;;11.70;99.90;;;;;;4976849;28;20179;-83
2022/10/20 02:14:19;;;;;;;42.78;25.88;;;11.60;99.90;;;;;;4982549;28;20046;-81
2022/10/20 02:16:57;;;;;;;38.92;24.77;;;11.60;99.90;;;;;;4948971;28;20038;-85
2022/10/20 02:19:27;;;;;;;41.70;25.92;;;11.60;99.90;;;;;;4976972;28;20038;-83
2022/10/20 02:21:55;;;;;;;45.08;26.52;;;11.60;99.90;;;;;;4976884;28;20019;-83
2022/10/20 02:24:25;;;;;;;50.47;25.20;;;11.50;99.90;;;;;;4977046;28;20089;-84
2022/10/20 02:26:54;;;;;;;38.40;23.42;;;11.50;99.90;;;;;;4977389;28;20640;-84
2022/10/20 02:29:26;;;;;;;43.30;26.80;;;11.50;99.90;;;;;;4976117;28;20106;-83
2022/10/20 02:31:53;;;;;;;;;;;11.50;99.90;;;;;;4977099;28;20022;-83
2022/10/20 02:34:44;;;;;;;39.60;25.35;;;11.50;99.90;;;;;;4975868;28;19984;-83
2022/10/20 02:37:21;;;;;;;38.22;24.30;;;11.50;99.90;;;;;;4944782;28;20031;-83
2022/10/20 02:39:48;;;;;;;43.92;26.40;;;11.50;99.90;;;;;;4946380;28;20494;-84
2022/10/20 02:42:17;;;;;;;38.00;25.20;;;11.50;99.90;;;;;;4977580;28;20110;-83
2022/10/20 02:44:43;;;;;;;36.35;24.50;;;11.50;99.90;;;;;;4979216;28;20388;-84
2022/10/20 02:47:09;;;;;;;35.10;23.33;;;11.50;99.90;;;;;;4961790;28;20030;-84
2022/10/20 02:50:01;;;;;;;39.15;25.73;;;11.40;99.90;;;;;;4979055;28;20026;-84
2022/10/20 02:52:28;;;;;;;39.33;24.25;;;11.40;99.90;;;;;;4978034;28;20105;-84
2022/10/20 02:54:54;;;;;;;34.42;22.70;;;11.30;99.90;;;;;;4979567;28;20023;-83
2022/10/20 02:57:19;;;;;;;36.33;22.52;;;11.30;99.90;;;;;;4961468;28;20038;-84
2022/10/20 02:59:46;;;;;;;33.72;23.75;;;11.30;99.90;;;;;;4978658;28;20082;-84
2022/10/20 03:02:12;;;;;;;34.88;22.15;;;11.40;99.90;;;;;;4962404;28;20043;-82
2022/10/20 03:05:08;;;;;;;30.98;20.77;;;11.40;99.90;;;;;;4981085;28;20518;-81
2022/10/20 03:07:50;;;;;;;34.65;23.55;;;11.50;99.90;;;;;;4978580;28;20062;-82
2022/10/20 03:11:15;;;;;;;34.47;22.10;;;11.50;99.90;;;;;;4961772;28;20031;-84
2022/10/20 03:13:41;;;;;;;35.15;22.42;;;11.40;99.90;;;;;;4961370;28;20058;-83
2022/10/20 03:16:31;;;;;;;28.48;18.45;;;11.40;99.90;;;;;;4961890;28;20484;-83
2022/10/20 03:19:29;;;;;;;27.67;19.20;;;11.30;99.90;;;;;;4883095;29;20503;-84
2022/10/20 03:25:46;;;;;;;29.00;19.67;;;11.30;99.90;;;;;;4844873;29;20094;-83
2022/10/20 03:28:32;;;;;;;34.10;21.05;;;11.30;99.90;;;;;;4874565;28;20023;-83
2022/10/20 03:30:58;;;;;;;32.90;21.67;;;11.30;99.90;;;;;;4981642;28;20503;-82
2022/10/20 03:33:25;;;;;;;31.33;21.77;;;11.40;99.90;;;;;;4964900;28;20022;-82
2022/10/20 03:35:50;;;;;;;30.67;21.58;;;11.30;99.90;;;;;;4981473;28;20035;-82
2022/10/20 03:38:16;;;;;;;34.78;21.80;;;11.30;99.90;;;;;;4982396;28;20034;-82
2022/10/20 03:40:42;;;;;;;27.25;18.40;;;11.20;99.90;;;;;;4984718;28;20042;-80
2022/10/20 03:43:08;;;;;;;25.35;18.27;;;11.20;99.90;;;;;;4964391;28;20041;-82
2022/10/20 03:45:34;;;;;;;31.83;18.20;;;11.20;99.90;;;;;;4980527;28;20054;-81
2022/10/20 03:47:59;;;;;;;27.25;19.13;;;11.20;99.90;;;;;;4961195;28;20490;-82
2022/10/20 03:50:25;;;;;;;27.15;18.83;;;11.30;99.90;;;;;;4985387;28;20027;-83
2022/10/20 03:52:51;;;;;;;30.40;22.02;;;11.30;99.90;;;;;;4962437;28;20054;-82
2022/10/20 03:55:18;;;;;;;35.60;22.48;;;11.30;99.90;;;;;;4962028;28;20019;-83
2022/10/20 03:57:44;;;;;;;32.15;21.67;;;11.20;99.90;;;;;;4981161;28;20030;-83
2022/10/20 04:00:11;;;;;;;32.92;19.05;;;11.20;99.90;;;;;;4981833;28;20091;-81
2022/10/20 04:02:46;;;;;;;38.90;22.75;;;11.20;99.90;;;;;;4978055;28;20053;-82
2022/10/20 04:05:14;;;;;;;36.97;21.33;;;11.20;99.90;;;;;;4960376;29;20019;-83
2022/10/20 04:07:42;;;;;;;37.67;21.75;;;11.20;99.90;;;;;;4979980;28;20586;-83
2022/10/20 04:10:09;;;;;;;34.65;22.05;;;11.10;99.90;;;;;;4962256;28;20035;-83
2022/10/20 04:12:35;;;;;;;35.90;22.83;;;11.00;99.90;;;;;;4980034;28;20440;-83
2022/10/20 04:15:01;;;;;;;30.45;20.27;;;11.00;99.90;;;;;;4962346;28;20037;-82
2022/10/20 04:17:26;;;;;;;33.03;21.95;;;11.00;99.90;;;;;;4979456;28;20027;-82
2022/10/20 04:19:52;;;;;;;28.52;19.60;;;11.00;99.90;;;;;;4980425;28;20027;-81
2022/10/20 04:22:18;;;;;;;40.42;23.35;;;11.00;99.90;;;;;;4965358;28;20041;-82
2022/10/20 04:24:43;;;;;;;39.95;21.65;;;11.00;99.90;;;;;;4963275;28;20026;-83
2022/10/20 04:27:09;;;;;;;35.65;22.20;;;11.00;99.90;;;;;;4977733;28;20030;-84
2022/10/20 04:29:35;;;;;;;41.13;23.13;;;10.90;99.90;;;;;;4977684;28;20073;-85
2022/10/20 04:32:01;;;;;;;36.35;23.05;;;10.90;99.90;;;;;;4963237;28;20030;-85
2022/10/20 04:34:26;;;;;;;31.98;19.95;;;10.80;99.90;;;;;;4977617;28;20511;-84
2022/10/20 04:36:52;;;;;;;37.85;23.55;;;10.80;99.90;;;;;;4978280;28;20023;-84
2022/10/20 04:39:17;;;;;;;40.53;24.20;;;10.80;99.90;;;;;;4978759;28;20038;-83
2022/10/20 04:41:43;;;;;;;35.25;22.58;;;10.80;99.90;;;;;;4990332;28;20027;-83
2022/10/20 04:44:09;;;;;;;35.60;21.80;;;10.80;99.90;;;;;;4996189;28;20015;-83
2022/10/20 04:46:34;;;;;;;38.88;22.73;;;10.80;99.90;;;;;;4967480;28;20105;-85
2022/10/20 04:49:00;;;;;;;28.02;19.10;;;10.80;99.90;;;;;;4961546;28;20038;-84
2022/10/20 04:51:26;;;;;;;25.27;17.40;;;10.80;99.90;;;;;;4992260;28;20038;-84
2022/10/20 04:53:52;;;;;;;25.23;17.58;;;10.80;99.90;;;;;;4978803;28;20085;-79
2022/10/20 05:03:22;;;;;;;34.58;21.25;;;10.90;99.90;;;;;;4980110;28;20037;-86
2022/10/20 05:23:25;;;;;;;40.33;21.15;;;10.80;99.90;;;;;;4966314;28;20041;-85
2022/10/20 05:26:51;;;;;;;29.48;19.60;;;10.80;99.90;;;;;;4930844;29;20050;-85
2022/10/20 05:29:56;;;;;;;;;;;10.90;99.90;;;;;;4935887;29;20163;-85
2022/10/20 05:32:59;;;;;;;32.88;20.52;;;10.90;99.90;;;;;;4903300;29;20395;-85
2022/10/20 05:41:52;;;;;;;38.20;22.00;;;10.90;99.90;;;;;;4876722;29;20055;-84
2022/10/20 05:44:27;;;;;;;41.03;22.38;;;10.80;99.90;;;;;;4904919;29;20040;-85
2022/10/20 05:51:16;;;;;;;40.65;22.35;;;10.70;99.90;;;;;;4881233;29;20044;-85
2022/10/20 05:54:51;;;;;;;38.38;22.30;;;10.60;99.90;;;;;;4825728;29;20091;-85
2022/10/20 06:19:32;;;;;;;36.35;21.83;;;10.50;99.90;;;;;;4689465;30;20115;-85
2022/10/20 07:46:29;;;;;;;17.45;13.15;;;11.30;99.90;;;;;;4157271;23;20058;-85
2022/10/20 07:52:50;;;;;;;19.00;13.25;;;11.60;99.90;;;;;;4906700;29;20116;-86
2022/10/20 07:56:05;;;;;;;19.85;13.52;;;11.60;99.90;;;;;;4869904;29;20040;-84
2022/10/20 07:59:28;;;;;;;25.40;14.68;;;11.70;99.90;;;;;;4901712;29;20092;-85
2022/10/20 08:02:45;;;;;;;23.30;12.23;;;11.70;99.90;;;;;;4859965;29;20033;-86
2022/10/20 08:13:11;;;;;;;;;;;11.80;99.90;;;;;;4815774;29;20042;-85
2022/10/20 08:20:09;;;;;;;17.55;12.10;;;11.90;99.90;;;;;;4795530;30;20057;-86
2022/10/20 08:23:35;;;;;;;23.77;14.23;;;12.10;99.90;;;;;;4792621;30;20024;-85
2022/10/20 08:27:02;;;;;;;17.48;11.73;;;12.00;99.90;;;;;;4806289;29;20023;-85
2022/10/20 08:33:24;;;;;;;17.35;11.93;;;12.20;99.90;;;;;;4771919;30;20047;-84
2022/10/20 08:40:00;;;;;;;13.20;10.32;;;12.20;99.90;;;;;;4879606;29;20133;-86
2022/10/20 08:44:10;;;;;;;15.63;10.55;;;12.30;99.90;;;;;;4918853;29;20048;-86
2022/10/20 08:47:02;;;;;;;16.05;11.10;;;12.40;99.90;;;;;;4846465;29;20068;-86
2022/10/20 08:50:20;;;;;;;17.40;11.48;;;12.30;99.90;;;;;;4868605;29;20045;-86
2022/10/20 08:54:17;;;;;;;15.07;10.55;;;12.30;99.90;;;;;;4851505;29;20065;-85
2022/10/20 09:01:13;;;;;;;14.63;10.57;;;12.30;99.90;;;;;;4789660;30;20100;-84
2022/10/20 09:04:50;;;;;;;11.77;9.20;;;12.40;99.90;;;;;;4827249;29;20049;-85
2022/10/20 09:08:21;;;;;;;15.35;11.35;;;12.60;99.90;;;;;;4814889;29;20143;-85
2022/10/20 09:14:02;;;;;;;12.40;9.13;;;12.50;99.90;;;;;;4772313;30;20105;-86
2022/10/20 09:16:40;;;;;;;12.82;9.77;;;12.40;99.90;;;;;;4762255;29;20038;-85
2022/10/20 09:20:04;;;;;;;17.55;9.25;;;12.40;99.90;;;;;;4846439;29;20068;-86
2022/10/20 09:23:18;;;;;;;12.98;9.10;;;12.50;99.90;;;;;;4840433;29;20050;-85
2022/10/20 09:26:20;;;;;;;11.48;9.80;;;12.70;99.90;;;;;;4844345;29;20053;-86
2022/10/20 09:29:37;;;;;;;8.75;6.75;;;12.80;99.90;;;;;;4820761;29;20046;-87
2022/10/20 09:32:50;;;;;;;13.10;10.13;;;13.10;99.90;;;;;;4843669;29;20074;-86
2022/10/20 09:35:45;;;;;;;15.10;11.25;;;13.20;99.90;;;;;;4898742;29;20111;-87
2022/10/20 09:39:50;;;;;;;14.40;10.43;;;13.40;99.90;;;;;;4889173;29;20141;-88
2022/10/20 09:46:47;;;;;;;15.60;10.52;;;13.30;99.90;;;;;;4843591;29;20066;-88
2022/10/20 09:50:09;;;;;;;12.43;8.90;;;13.30;99.90;;;;;;4850104;29;20463;-88
2022/10/20 09:53:13;;;;;;;11.98;7.88;;;13.70;99.90;;;;;;4814603;29;20187;-87
2022/10/20 09:56:56;;;;;;;14.95;9.90;;;14.10;99.90;;;;;;4825968;29;20081;-87
2022/10/20 09:59:56;;;;;;;;;;;14.30;98.40;;;;;;4808073;29;20429;-88
2022/10/20 10:03:19;;;;;;;11.85;7.30;;;14.20;98.30;;;;;;4792796;29;19913;-88
2022/10/20 10:06:57;;;;;;;11.38;7.43;;;14.40;98.40;;;;;;4770508;30;20039;-88
2022/10/20 10:10:06;;;;;;;13.05;9.52;;;14.70;97.50;;;;;;4781835;29;20041;-88
2022/10/20 10:13:26;;;;;;;16.10;9.45;;;14.80;95.70;;;;;;4792717;29;20225;-88
2022/10/20 10:16:40;;;;;;;13.85;9.25;;;14.80;96.20;;;;;;4779838;30;20517;-88
2022/10/20 10:19:32;;;;;;;11.88;7.40;;;15.00;96.20;;;;;;4837734;29;20103;-87
2022/10/20 10:25:44;;;;;;;14.20;8.10;;;15.10;94.80;;;;;;4950373;28;20092;-87
2022/10/20 10:28:45;;;;;;;13.02;9.23;;;15.00;95.50;;;;;;4967809;28;20043;-88
2022/10/20 10:31:26;;;;;;;10.25;7.30;;;14.90;95.00;;;;;;4932225;29;20023;-87
2022/10/20 10:35:11;;;;;;;10.85;7.85;;;14.70;95.90;;;;;;4965097;28;20480;-88
2022/10/20 10:38:57;;;;;;;11.70;7.20;;;15.00;96.00;;;;;;4902880;29;20041;-87
2022/10/20 10:45:56;;;;;;;8.88;7.03;;;15.40;95.30;;;;;;4852306;29;20067;-88
2022/10/20 10:49:12;;;;;;;9.00;6.55;;;15.80;94.40;;;;;;4861160;29;20046;-88
2022/10/20 10:56:14;;;;;;;9.57;8.02;;;16.70;92.50;;;;;;4787877;29;20052;-88
2022/10/20 10:59:38;;;;;;;11.70;7.22;;;16.80;90.90;;;;;;4808016;29;20578;-88
2022/10/20 11:02:39;;;;;;;9.70;7.07;;;16.70;90.80;;;;;;4776073;30;20510;-87
2022/10/20 11:06:00;;;;;;;9.50;6.35;;;16.50;90.80;;;;;;4842058;29;20038;-87
2022/10/20 11:09:22;;;;;;;10.73;7.38;;;16.40;91.30;;;;;;4836237;29;20542;-87
2022/10/20 11:12:25;;;;;;;9.70;6.40;;;16.30;91.40;;;;;;4809099;29;20439;-86
2022/10/20 11:15:29;;;;;;;9.13;5.50;;;16.30;91.80;;;;;;4821913;29;20053;-86
2022/10/20 11:18:32;;;;;;;8.20;5.47;;;16.50;91.50;;;;;;4847705;29;20034;-87
2022/10/20 11:21:44;;;;;;;8.75;5.43;;;16.70;91.20;;;;;;4829172;29;20105;-87
2022/10/20 11:28:03;;;;;;;10.75;5.28;;;16.90;90.60;;;;;;4942487;29;19914;-87
2022/10/20 11:31:19;;;;;;;6.45;4.65;;;17.00;90.20;;;;;;4963184;29;20111;-87
2022/10/20 11:34:29;;;;;;;4.78;3.97;;;17.20;90.30;;;;;;4945767;29;20094;-87
2022/10/20 11:37:57;;;;;;;8.02;4.30;;;17.40;89.90;;;;;;4963752;29;20110;-87
2022/10/20 11:48:26;;;;;;;6.03;4.10;;;18.10;86.20;;;;;;4905045;28;20089;-87
2022/10/20 11:51:50;;;;;;;5.82;3.47;;;18.20;86.20;;;;;;4862750;29;20070;-86
2022/10/20 11:58:21;;;;;;;7.68;4.38;;;18.30;84.50;;;;;;4792289;30;20047;-86
2022/10/20 12:01:02;;;;;;;4.97;3.55;;;18.10;82.90;;;;;;4847782;29;20052;-87
2022/10/20 12:04:04;;;;;;;10.85;4.00;;;18.00;84.20;;;;;;4951324;28;20039;-87
2022/10/20 12:07:19;;;;;;;6.07;3.42;;;18.00;83.20;;;;;;4963376;28;20380;-87
2022/10/20 12:10:37;;;;;;;7.50;3.55;;;17.90;84.60;;;;;;4960583;28;20099;-87
2022/10/20 12:17:22;;;;;;;6.63;3.13;;;18.00;83.80;;;;;;4940642;29;20562;-88
2022/10/20 12:20:19;;;;;;;5.18;3.55;;;18.10;82.40;;;;;;4924147;29;20706;-88
2022/10/20 12:22:49;;;;;;;4.78;3.03;;;18.20;82.80;;;;;;4936583;28;20019;-87
2022/10/20 12:25:44;;;;;;;3.72;3.03;;;18.30;83.10;;;;;;4947290;28;20031;-88
2022/10/20 12:28:29;;;;;;;6.55;3.60;;;18.60;82.80;;;;;;4973782;28;20057;-86
2022/10/20 12:30:58;;;;;;;10.65;4.32;;;19.10;81.80;;;;;;4968836;28;20504;-88
2022/10/20 12:33:36;;;;;;;3.28;2.88;;;19.30;78.80;;;;;;4981735;28;20031;-86
2022/10/20 12:36:12;;;;;;;7.82;3.85;;;19.20;79.60;;;;;;4965480;28;20027;-84
2022/10/20 12:38:39;;;;;;;10.70;3.95;;;19.10;79.70;;;;;;4987216;28;20077;-85
2022/10/20 12:41:08;;;;;;;4.40;3.55;;;18.80;79.90;;;;;;4968967;28;20031;-85
2022/10/20 12:43:44;;;;;;;4.63;3.15;;;18.60;81.30;;;;;;4978491;28;20039;-85
2022/10/20 12:46:15;;;;;;;7.93;4.35;;;18.60;82.00;;;;;;4996525;28;20143;-85
2022/10/20 12:48:45;;;;;;;5.63;3.28;;;18.60;81.30;;;;;;4994913;28;20027;-86
2022/10/20 12:51:23;;;;;;;5.32;3.15;;;18.50;82.30;;;;;;4966179;28;20014;-85
2022/10/20 12:54:04;;;;;;;5.75;3.28;;;18.50;82.60;;;;;;4976668;28;20122;-85
2022/10/20 12:56:38;;;;;;;10.45;4.05;;;18.50;82.50;;;;;;4967613;28;20030;-87
2022/10/20 12:59:27;;;;;;;4.85;3.90;;;18.40;82.80;;;;;;4973093;28;20033;-86
2022/10/20 13:02:08;;;;;;;5.30;3.42;;;18.20;84.50;;;;;;4976487;28;20166;-85
2022/10/20 13:04:58;;;;;;;7.25;4.30;;;18.00;85.30;;;;;;4971522;29;20027;-86
2022/10/20 13:07:45;;;;;;;5.72;4.60;;;17.80;85.40;;;;;;4956667;28;20027;-86
2022/10/20 13:10:29;;;;;;;6.78;4.28;;;17.70;86.80;;;;;;4983251;28;20022;-86
2022/10/20 13:13:01;;;;;;;7.78;4.68;;;17.80;86.50;;;;;;4957380;29;20416;-85
2022/10/20 13:15:51;;;;;;;6.25;3.65;;;17.80;86.80;;;;;;4958104;29;20038;-85
2022/10/20 13:18:26;;;;;;;7.22;3.92;;;17.90;87.00;;;;;;4975641;29;20027;-85
2022/10/20 13:21:19;;;;;;;12.10;4.47;;;18.00;85.60;;;;;;4976289;28;20015;-85
2022/10/20 13:23:53;;;;;;;7.15;4.70;;;18.00;85.90;;;;;;4955884;29;20035;-86
2022/10/20 13:26:35;;;;;;;8.25;5.22;;;17.90;86.60;;;;;;4955134;29;20038;-86
2022/10/20 13:29:01;;;;;;;9.15;4.60;;;17.90;86.80;;;;;;4980507;28;20018;-86
2022/10/20 13:31:45;;;;;;;8.70;4.97;;;17.80;87.40;;;;;;4979305;28;20077;-87
2022/10/20 13:34:29;;;;;;;6.55;4.35;;;17.90;87.40;;;;;;4983582;28;20111;-86
2022/10/20 13:37:17;;;;;;;7.00;4.07;;;17.90;87.20;;;;;;4980359;28;20034;-85
2022/10/20 13:40:00;;;;;;;7.78;3.30;;;17.80;87.20;;;;;;4962707;28;20038;-87
2022/10/20 13:42:25;;;;;;;;;;;17.60;88.30;;;;;;4964034;28;20688;-86
2022/10/20 13:45:09;;;;;;;12.18;4.85;;;17.50;88.60;;;;;;4961785;28;19934;-86
2022/10/20 13:47:47;;;;;;;13.65;5.80;;;17.30;89.60;;;;;;4962102;28;20026;-86
2022/10/20 13:50:29;;;;;;;7.20;4.55;;;17.30;90.10;;;;;;4980169;28;20074;-86
2022/10/20 13:53:24;;;;;;;8.85;5.10;;;17.20;90.50;;;;;;4960939;28;20027;-86
2022/10/20 13:56:07;;;;;;;5.72;3.42;;;17.10;90.50;;;;;;4980302;28;20126;-85
2022/10/20 13:58:36;;;;;;;6.90;4.93;;;17.10;90.90;;;;;;4957279;28;20050;-86
2022/10/20 14:01:22;;;;;;;6.22;4.38;;;17.10;90.80;;;;;;4960006;28;20071;-88
2022/10/20 14:03:47;;;;;;;8.02;5.18;;;17.10;90.90;;;;;;4959596;29;20045;-87
2022/10/20 14:06:33;;;;;;;8.63;4.72;;;17.00;90.80;;;;;;4961817;29;20027;-87
2022/10/20 14:09:10;;;;;;;6.63;3.88;;;17.00;91.00;;;;;;4961318;28;20042;-87
2022/10/20 14:11:36;;;;;;;7.43;3.83;;;17.00;91.20;;;;;;4958993;29;20376;-87
2022/10/20 14:14:04;;;;;;;7.82;4.65;;;17.00;91.10;;;;;;4958366;28;20035;-86
2022/10/20 14:16:33;;;;;;;9.32;4.28;;;17.00;91.50;;;;;;4960014;29;20027;-88
2022/10/20 14:19:08;;;;;;;8.20;4.43;;;17.00;91.40;;;;;;4957826;29;20040;-87
2022/10/20 14:21:49;;;;;;;6.03;4.40;;;17.00;91.40;;;;;;4942887;28;20065;-86
2022/10/20 14:24:28;;;;;;;5.78;4.22;;;16.90;91.50;;;;;;4968534;28;20053;-87
2022/10/20 14:26:54;;;;;;;6.85;4.28;;;16.90;91.80;;;;;;4961196;28;20049;-85
2022/10/20 14:29:23;;;;;;;8.05;4.80;;;16.80;91.80;;;;;;4978146;28;20061;-86
2022/10/20 14:31:49;;;;;;;9.52;5.35;;;16.70;91.90;;;;;;4979388;28;20062;-87
2022/10/20 14:34:21;;;;;;;10.48;4.53;;;16.70;92.10;;;;;;4961521;29;20311;-86
2022/10/20 14:36:49;;;;;;;6.55;5.10;;;16.60;92.20;;;;;;4945959;29;20094;-87
2022/10/20 14:39:25;;;;;;;8.35;6.22;;;16.50;92.00;;;;;;4962468;29;20082;-86
2022/10/20 14:41:57;;;;;;;10.02;5.03;;;16.50;92.20;;;;;;4946660;29;20060;-86
2022/10/20 14:44:24;;;;;;;8.55;5.55;;;16.50;92.60;;;;;;4946277;29;20672;-87
2022/10/20 14:46:52;;;;;;;10.38;5.78;;;16.30;92.80;;;;;;4961668;28;20075;-87
2022/10/20 14:49:28;;;;;;;9.80;5.47;;;16.20;93.20;;;;;;4944369;29;20035;-86
2022/10/20 14:51:55;;;;;;;9.15;5.13;;;16.10;93.60;;;;;;4960486;29;20046;-86
2022/10/20 14:54:34;;;;;;;9.20;4.97;;;16.10;93.90;;;;;;4944580;28;20135;-86
2022/10/20 14:57:06;;;;;;;6.10;5.15;;;16.00;94.70;;;;;;4944562;29;20485;-87
2022/10/20 14:59:39;;;;;;;7.35;5.45;;;15.90;95.10;;;;;;4964798;28;20053;-87
2022/10/20 15:02:41;;;;;;;7.28;5.22;;;15.80;95.50;;;;;;4964197;28;20182;-86
2022/10/20 15:05:20;;;;;;;8.75;6.15;;;15.80;95.90;;;;;;4965049;28;20050;-86
2022/10/20 15:07:45;;;;;;;7.28;5.05;;;15.80;96.60;;;;;;4969866;28;20046;-86
2022/10/20 15:10:17;;;;;;;5.95;4.40;;;15.70;96.50;;;;;;4963442;28;20036;-87
2022/10/20 15:12:48;;;;;;;13.95;4.65;;;15.80;96.60;;;;;;4962849;28;20023;-87
2022/10/20 15:15:24;;;;;;;9.93;6.80;;;15.80;96.80;;;;;;4953219;29;20031;-87
2022/10/20 15:17:51;;;;;;;11.98;6.65;;;15.80;96.10;;;;;;4957497;29;20027;-88
2022/10/20 15:20:30;;;;;;;13.93;5.72;;;15.80;95.90;;;;;;4970927;28;20035;-87
2022/10/20 15:22:57;;;;;;;10.38;5.75;;;15.70;96.40;;;;;;4962917;29;20027;-86
2022/10/20 15:25:24;;;;;;;13.13;6.45;;;15.60;96.70;;;;;;4960784;29;20023;-86
2022/10/20 15:27:50;;;;;;;7.82;5.38;;;15.60;96.70;;;;;;4963390;29;20078;-87
2022/10/20 15:30:21;;;;;;;8.75;5.72;;;15.50;96.70;;;;;;4961778;29;20031;-87
2022/10/20 15:32:47;;;;;;;7.78;5.43;;;15.50;96.70;;;;;;4945137;29;20473;-87
2022/10/20 15:35:16;;;;;;;9.85;6.38;;;15.40;96.70;;;;;;4961754;29;20062;-86
2022/10/20 15:37:42;;;;;;;8.70;5.47;;;15.30;96.40;;;;;;4963005;29;20078;-87
2022/10/20 15:40:08;;;;;;;9.43;6.07;;;15.20;96.70;;;;;;4962639;29;20035;-86
2022/10/20 15:42:34;;;;;;;6.50;5.18;;;15.10;97.00;;;;;;4961440;28;20040;-86
2022/10/20 15:45:00;;;;;;;14.25;6.70;;;15.10;97.30;;;;;;4962791;29;20035;-87
2022/10/20 15:47:26;;;;;;;6.70;4.80;;;15.00;97.50;;;;;;4961948;28;20496;-87
2022/10/20 15:49:52;;;;;;;12.90;6.70;;;14.90;97.60;;;;;;4944985;29;20031;-87
2022/10/20 15:52:17;;;;;;;9.80;6.50;;;14.80;97.80;;;;;;4961890;29;20023;-87
2022/10/20 15:54:43;;;;;;;11.05;6.82;;;14.70;97.90;;;;;;4961183;29;20041;-87
2022/10/20 15:57:09;;;;;;;7.63;5.30;;;14.60;98.00;;;;;;4964587;28;20035;-88
2022/10/20 15:59:34;;;;;;;7.85;4.90;;;14.60;98.20;;;;;;4985140;28;20031;-85
2022/10/20 16:02:00;;;;;;;10.27;6.07;;;14.50;98.40;;;;;;4992983;28;20026;-86
2022/10/20 16:04:26;;;;;;;12.70;6.13;;;14.50;98.60;;;;;;4988918;28;20014;-87
2022/10/20 16:06:53;;;;;;;12.73;7.38;;;14.40;98.80;;;;;;4964106;28;20024;-87
2022/10/20 16:09:22;;;;;;;6.68;5.05;;;14.40;99.00;;;;;;4964199;28;20023;-87
2022/10/20 16:11:49;;;;;;;8.98;4.35;;;14.30;99.20;;;;;;4968372;28;20030;-86
2022/10/20 16:14:14;;;;;;;11.93;7.03;;;14.30;99.40;;;;;;4970199;28;20023;-88
2022/10/20 16:16:41;;;;;;;10.32;7.15;;;14.20;99.60;;;;;;4969423;28;20207;-87
2022/10/20 16:19:07;;;;;;;12.48;6.25;;;14.20;99.80;;;;;;4970408;28;20069;-88
2022/10/20 16:21:33;;;;;;;9.05;5.80;;;14.20;99.60;;;;;;4963357;28;20484;-87
2022/10/20 16:24:02;;;;;;;11.75;6.60;;;14.20;99.60;;;;;;4987087;28;20026;-87
2022/10/20 16:26:28;;;;;;;11.30;6.65;;;14.20;99.70;;;;;;4983123;28;20023;-87
2022/10/20 16:28:54;;;;;;;11.85;6.20;;;14.20;99.70;;;;;;4979927;28;20476;-87
2022/10/20 16:31:19;;;;;;;8.85;5.40;;;14.10;99.70;;;;;;4963725;28;20046;-87
2022/10/20 16:33:45;;;;;;;6.15;5.07;;;14.10;99.80;;;;;;4961893;28;20609;-88
2022/10/20 16:36:16;;;;;;;6.20;4.78;;;14.10;99.90;;;;;;4966117;28;20431;-88
2022/10/20 16:38:45;;;;;;;9.40;6.38;;;14.10;99.90;;;;;;4969600;28;20035;-88
2022/10/20 16:41:13;;;;;;;10.82;6.50;;;14.10;99.90;;;;;;4962620;28;20030;-88
2022/10/20 16:43:41;;;;;;;13.15;6.03;;;14.10;99.90;;;;;;4962029;28;20027;-86
2022/10/20 16:46:17;;;;;;;8.05;5.95;;;14.00;99.90;;;;;;4974806;28;20011;-82
2022/10/20 16:48:46;;;;;;;7.28;5.80;;;14.00;99.90;;;;;;4977649;28;20031;-84
2022/10/20 16:51:15;;;;;;;8.73;5.50;;;14.00;99.90;;;;;;4982648;28;20030;-85
2022/10/20 16:53:47;;;;;;;8.77;5.35;;;13.90;99.90;;;;;;4982454;28;20022;-84
2022/10/20 16:56:13;;;;;;;12.95;6.85;;;13.90;99.90;;;;;;4971107;28;20016;-84
2022/10/20 16:58:38;;;;;;;8.52;5.22;;;13.90;99.90;;;;;;4978484;28;20054;-85
2022/10/20 17:01:10;;;;;;;8.65;5.40;;;13.80;99.90;;;;;;4972074;28;20031;-85
2022/10/20 17:03:40;;;;;;;8.15;5.00;;;13.80;99.90;;;;;;4977264;28;20093;-86
2022/10/20 17:06:06;;;;;;;7.55;4.68;;;13.70;99.90;;;;;;4959104;28;20027;-85
2022/10/20 17:08:36;;;;;;;8.77;5.80;;;13.80;99.90;;;;;;4977859;28;20026;-82
2022/10/20 17:11:07;;;;;;;8.90;4.88;;;13.70;99.90;;;;;;4974417;28;20650;-85
2022/10/20 17:13:34;;;;;;;8.45;4.80;;;13.70;99.90;;;;;;4969190;28;20034;-84
2022/10/20 17:16:05;;;;;;;8.18;4.70;;;13.70;99.90;;;;;;4973542;28;20030;-84
2022/10/20 17:18:31;;;;;;;6.20;5.35;;;13.70;99.90;;;;;;4972904;28;20023;-84
2022/10/20 17:20:56;;;;;;;5.15;4.18;;;13.70;99.90;;;;;;4960124;28;20528;-85
2022/10/20 17:23:23;;;;;;;5.22;4.32;;;13.70;99.90;;;;;;4977086;28;20023;-85
2022/10/20 17:25:50;;;;;;;6.05;4.70;;;13.70;99.90;;;;;;4959832;28;20023;-85